Time;durP1;ratioP1;P1;durP2;ratioP2;P2;SDS_P1;SDS_P2;PMS_P1;PMS_P2;Temp;Humidity;BMP_temperature;BMP_pressure;BME280_temperature;BME280_humidity;BME280_pressure;Samples;Min_cycle;Max_cycle;Signal;HPM_P1;HPM_P2
2022/01/30 00:04:50;;;;;;;0.20;0.10;;;7.00;99.90;;;;;;25705515;23;20500;-73
2022/01/30 00:14:55;;;;;;;0.20;0.10;;;7.50;99.90;;;;;;25697563;23;20199;-74
2022/01/30 00:25:05;;;;;;;0.20;0.10;;;7.30;99.90;;;;;;25670228;23;20157;-75
2022/01/30 00:35:10;;;;;;;0.97;0.93;;;6.90;99.90;;;;;;25699145;23;20647;-75
2022/01/30 00:45:15;;;;;;;0.20;0.20;;;6.90;99.90;;;;;;25702654;23;20208;-73
2022/01/30 00:55:19;;;;;;;0.20;0.10;;;6.70;99.90;;;;;;25675443;23;20224;-72
2022/01/30 01:05:25;;;;;;;0.20;0.10;;;6.80;99.90;;;;;;25629490;23;1715664;-73
2022/01/30 01:25:51;;;;;;;0.50;0.50;;;6.80;99.90;;;;;;25687611;23;21029;-73
2022/01/30 01:35:55;;;;;;;0.20;0.00;;;6.70;99.90;;;;;;25713395;23;20189;-68
2022/01/30 01:46:01;;;;;;;0.93;0.93;;;7.30;99.90;;;;;;25686185;23;20490;-66
2022/01/30 01:56:05;;;;;;;0.20;0.00;;;7.30;99.90;;;;;;25713346;23;20335;-67
2022/01/30 02:06:14;;;;;;;0.20;0.20;;;7.20;99.90;;;;;;25712065;23;20197;-67
2022/01/30 02:26:47;;;;;;;0.20;0.10;;;7.40;99.90;;;;;;25683221;23;20194;-68
2022/01/30 02:36:52;;;;;;;0.20;0.10;;;7.70;99.90;;;;;;25719631;23;20519;-69
2022/01/30 02:47:01;;;;;;;0.20;0.00;;;7.90;99.90;;;;;;25712768;23;20176;-68
2022/01/30 02:57:06;;;;;;;0.20;0.00;;;8.10;99.90;;;;;;25709711;23;20689;-68
2022/01/30 03:07:11;;;;;;;0.20;0.00;;;8.20;99.90;;;;;;25710511;23;20671;-67
2022/01/30 03:17:15;;;;;;;0.20;0.10;;;8.40;99.90;;;;;;25710782;23;20192;-68
2022/01/30 03:27:20;;;;;;;0.20;0.10;;;8.60;99.90;;;;;;25682871;23;20170;-68
2022/01/30 03:37:24;;;;;;;0.20;0.07;;;8.40;99.90;;;;;;25708764;23;20284;-68
2022/01/30 03:47:29;;;;;;;0.30;0.30;;;8.40;99.90;;;;;;25709115;23;20169;-71
2022/01/30 03:57:33;;;;;;;1.60;1.40;;;8.40;99.90;;;;;;25682148;23;20532;-70
2022/01/30 04:07:39;;;;;;;0.20;0.10;;;8.50;99.90;;;;;;25710336;23;20522;-70
2022/01/30 04:17:43;;;;;;;0.20;0.10;;;8.50;99.90;;;;;;25716788;23;20587;-67
2022/01/30 04:27:49;;;;;;;0.20;0.00;;;8.20;99.90;;;;;;25716706;23;20169;-67
2022/01/30 04:38:03;;;;;;;0.20;0.03;;;8.00;99.90;;;;;;25664655;23;20182;-67
2022/01/30 04:58:34;;;;;;;0.20;0.00;;;8.20;99.90;;;;;;25718022;23;20197;-68
2022/01/30 05:08:40;;;;;;;0.20;0.10;;;7.80;99.90;;;;;;25713475;23;20201;-67
2022/01/30 05:18:45;;;;;;;0.20;0.00;;;7.60;99.90;;;;;;25714822;23;20193;-67
2022/01/30 05:28:51;;;;;;;0.20;0.00;;;7.20;99.90;;;;;;25687212;23;20170;-67
2022/01/30 05:38:55;;;;;;;0.20;0.07;;;7.90;99.90;;;;;;25662375;23;20251;-75
2022/01/30 05:49:03;;;;;;;1.20;0.77;;;8.20;99.90;;;;;;25715022;23;20499;-74
2022/01/30 05:59:07;;;;;;;0.20;0.00;;;8.30;99.90;;;;;;25686309;23;20197;-74
2022/01/30 06:09:19;;;;;;;0.20;0.20;;;7.90;99.90;;;;;;25711985;23;20615;-65
2022/01/30 06:19:22;;;;;;;0.20;0.10;;;7.80;99.90;;;;;;25684205;23;20244;-65
2022/01/30 06:29:28;;;;;;;0.20;0.00;;;8.00;99.90;;;;;;25713387;23;20208;-65
2022/01/30 06:39:31;;;;;;;0.20;0.00;;;8.00;99.90;;;;;;25710591;23;20806;-65
2022/01/30 06:49:37;;;;;;;0.20;0.00;;;7.70;99.90;;;;;;25683706;23;20177;-70
2022/01/30 06:59:45;;;;;;;0.20;0.00;;;7.70;99.90;;;;;;25683416;23;20197;-70
2022/01/30 07:09:50;;;;;;;0.87;0.87;;;7.90;99.90;;;;;;25709199;23;20194;-71
2022/01/30 07:19:53;;;;;;;0.20;0.00;;;8.40;99.90;;;;;;25710399;23;20177;-70
2022/01/30 07:29:59;;;;;;;0.20;0.10;;;7.90;99.90;;;;;;25711130;23;20639;-67
2022/01/30 07:40:05;;;;;;;0.20;0.10;;;7.90;99.90;;;;;;25704758;23;20354;-67
2022/01/30 07:50:10;;;;;;;0.20;0.00;;;8.40;99.90;;;;;;25683036;23;20200;-67
2022/01/30 08:00:15;;;;;;;0.20;0.10;;;8.60;99.90;;;;;;25707600;23;20189;-69
2022/01/30 08:10:20;;;;;;;0.20;0.00;;;8.80;99.90;;;;;;25680062;23;20600;-68
2022/01/30 08:20:27;;;;;;;0.20;0.10;;;9.20;99.90;;;;;;25707676;23;20158;-74
2022/01/30 08:30:32;;;;;;;0.20;0.10;;;9.80;99.90;;;;;;25707069;23;20213;-73
2022/01/30 08:40:36;;;;;;;0.20;0.10;;;10.10;99.90;;;;;;25710536;23;20165;-73
2022/01/30 08:50:41;;;;;;;0.20;0.10;;;10.20;99.90;;;;;;25704148;23;20262;-74
2022/01/30 09:00:49;;;;;;;0.20;0.10;;;10.50;99.90;;;;;;25704777;23;20196;-74
2022/01/30 09:10:54;;;;;;;0.20;0.10;;;10.80;99.90;;;;;;25707617;23;20620;-69
2022/01/30 09:20:59;;;;;;;0.20;0.10;;;11.10;99.90;;;;;;25711321;23;20185;-74
2022/01/30 09:31:04;;;;;;;0.20;0.10;;;11.60;99.90;;;;;;25711778;23;20197;-75
2022/01/30 09:41:10;;;;;;;0.20;0.10;;;11.80;99.90;;;;;;25709808;23;20154;-75
2022/01/30 09:51:15;;;;;;;1.53;1.53;;;12.00;99.90;;;;;;25708719;23;20189;-66
2022/01/30 10:01:19;;;;;;;6.80;1.57;;;13.20;99.90;;;;;;25710940;23;20753;-65
2022/01/30 10:11:29;;;;;;;0.20;0.10;;;13.80;99.90;;;;;;25707632;23;20201;-68
2022/01/30 10:21:33;;;;;;;0.20;0.10;;;14.40;99.90;;;;;;25709190;23;20164;-67
2022/01/30 10:32:01;;;;;;;0.20;0.10;;;15.00;99.90;;;;;;25708506;23;20185;-68
2022/01/30 10:42:05;;;;;;;0.20;0.10;;;15.80;99.90;;;;;;25706256;23;20158;-67
2022/01/30 10:52:32;;;;;;;0.20;0.10;;;16.70;99.90;;;;;;25700834;23;20217;-68
2022/01/30 11:02:38;;;;;;;0.20;0.20;;;17.30;99.90;;;;;;25705879;23;20636;-68
2022/01/30 11:12:46;;;;;;;4.80;4.57;;;17.50;99.90;;;;;;25705428;23;20258;-68
2022/01/30 11:22:51;;;;;;;0.30;0.30;;;17.80;99.90;;;;;;25704992;23;20169;-75
2022/01/30 11:32:57;;;;;;;0.20;0.10;;;18.70;99.90;;;;;;25705674;23;20533;-75
2022/01/30 11:43:09;;;;;;;0.20;0.10;;;19.40;99.90;;;;;;25707759;23;20181;-74
2022/01/30 11:53:27;;;;;;;0.20;0.10;;;20.20;99.90;;;;;;25705025;23;20197;-74
2022/01/30 12:03:35;;;;;;;5.93;5.67;;;21.00;99.90;;;;;;25707795;23;20202;-67
2022/01/30 12:13:46;;;;;;;0.20;0.10;;;20.60;99.90;;;;;;25678047;23;20197;-68
2022/01/30 12:23:50;;;;;;;0.63;0.63;;;21.30;99.90;;;;;;25675599;23;20180;-69
2022/01/30 12:34:04;;;;;;;1.13;1.13;;;20.90;99.90;;;;;;25711198;23;20193;-71
2022/01/30 12:44:12;;;;;;;0.20;0.00;;;20.50;99.90;;;;;;25712718;23;20581;-70
2022/01/30 12:54:19;;;;;;;0.20;0.10;;;21.10;99.90;;;;;;25682288;23;20202;-69
2022/01/30 13:04:26;;;;;;;0.63;0.63;;;21.90;99.90;;;;;;25701408;23;20607;-68
2022/01/30 13:14:37;;;;;;;0.20;0.00;;;22.20;99.90;;;;;;25702068;23;20205;-68
2022/01/30 13:24:40;;;;;;;0.23;0.23;;;22.40;99.90;;;;;;25705832;23;20198;-67
2022/01/30 13:34:46;;;;;;;0.20;0.00;;;22.50;99.90;;;;;;25706681;23;20276;-68
2022/01/30 13:44:52;;;;;;;0.20;0.00;;;22.40;99.90;;;;;;25704651;23;20261;-68
2022/01/30 13:55:05;;;;;;;0.20;0.00;;;21.40;99.90;;;;;;25706652;23;20292;-67
2022/01/30 14:05:30;;;;;;;0.20;0.00;;;21.80;99.90;;;;;;25705651;23;20196;-70
2022/01/30 14:15:37;;;;;;;0.20;0.10;;;22.80;99.90;;;;;;25678414;23;20569;-69
2022/01/30 14:25:42;;;;;;;0.20;0.00;;;22.40;99.90;;;;;;25704481;23;20504;-67
2022/01/30 14:35:47;;;;;;;0.20;0.10;;;23.10;99.90;;;;;;25703101;23;20189;-70
2022/01/30 14:45:55;;;;;;;0.20;0.00;;;22.80;99.90;;;;;;25702478;23;20165;-69
2022/01/30 14:56:00;;;;;;;0.20;0.00;;;22.20;99.90;;;;;;25702518;23;20194;-71
2022/01/30 15:06:05;;;;;;;0.20;0.00;;;22.40;99.90;;;;;;25676523;23;20212;-71
2022/01/30 15:16:19;;;;;;;0.20;0.00;;;22.80;99.90;;;;;;25702321;23;20190;-70
2022/01/30 15:26:23;;;;;;;0.20;0.00;;;21.70;99.90;;;;;;25700930;23;20632;-71
2022/01/30 15:36:29;;;;;;;0.20;0.00;;;23.00;99.90;;;;;;25706612;23;20648;-71
2022/01/30 15:56:56;;;;;;;24.27;3.70;;;21.00;99.90;;;;;;25700453;23;20204;-71
2022/01/30 16:07:00;;;;;;;0.20;0.00;;;19.30;99.90;;;;;;25705292;23;20232;-70
2022/01/30 16:17:06;;;;;;;0.20;0.10;;;19.30;99.90;;;;;;25707906;23;20192;-66
2022/01/30 16:27:09;;;;;;;0.20;0.10;;;18.50;99.90;;;;;;25684973;23;20193;-67
2022/01/30 16:37:14;;;;;;;0.20;0.10;;;17.10;99.90;;;;;;25682212;23;20200;-74
2022/01/30 16:47:30;;;;;;;0.20;0.00;;;15.20;99.90;;;;;;25708797;23;20762;-75
2022/01/30 16:57:35;;;;;;;0.20;0.20;;;14.70;99.90;;;;;;25710455;23;20232;-75
2022/01/30 17:07:38;;;;;;;0.20;0.10;;;14.40;99.90;;;;;;25711595;23;20193;-74
2022/01/30 17:17:44;;;;;;;1.57;1.50;;;13.80;99.90;;;;;;25713682;23;20189;-73
2022/01/30 17:27:47;;;;;;;0.20;0.10;;;13.40;99.90;;;;;;25694102;23;20165;-79
2022/01/30 17:37:52;;;;;;;0.20;0.10;;;13.10;99.90;;;;;;25710150;23;20186;-78
2022/01/30 17:47:59;;;;;;;0.20;0.10;;;12.80;99.90;;;;;;25708545;23;20164;-74
2022/01/30 17:58:05;;;;;;;0.33;0.33;;;12.30;99.90;;;;;;25705794;23;20643;-75
2022/01/30 18:08:08;;;;;;;0.20;0.10;;;11.70;99.90;;;;;;25678544;23;20197;-75
2022/01/30 18:18:14;;;;;;;0.20;0.10;;;11.80;99.90;;;;;;25706148;23;20225;-74
2022/01/30 18:28:18;;;;;;;0.20;0.10;;;11.30;99.90;;;;;;25705714;23;20507;-75
2022/01/30 18:38:36;;;;;;;0.20;0.10;;;11.00;99.90;;;;;;25704726;23;20186;-76
2022/01/30 18:48:41;;;;;;;0.20;0.00;;;10.60;99.90;;;;;;25706201;23;20157;-75
2022/01/30 18:58:46;;;;;;;0.20;0.10;;;10.60;99.90;;;;;;25706046;23;20225;-75
2022/01/30 19:08:50;;;;;;;0.70;0.70;;;10.60;99.90;;;;;;25704093;23;20286;-63
2022/01/30 19:18:55;;;;;;;0.20;0.10;;;13.70;99.90;;;;;;25676886;23;20202;-64
2022/01/30 19:28:59;;;;;;;0.20;0.10;;;12.90;99.90;;;;;;25703769;23;20245;-65
2022/01/30 19:39:05;;;;;;;0.20;0.07;;;12.90;99.90;;;;;;25704319;23;20185;-74
2022/01/30 19:49:08;;;;;;;0.20;0.00;;;12.80;99.90;;;;;;25703643;23;20663;-73
2022/01/30 19:59:14;;;;;;;0.20;0.10;;;12.80;99.90;;;;;;25703945;23;20204;-75
2022/01/30 20:09:17;;;;;;;0.20;0.00;;;11.90;99.90;;;;;;25678039;23;20197;-75
2022/01/30 20:19:23;;;;;;;0.20;0.00;;;11.90;99.90;;;;;;25704766;23;20189;-64
2022/01/30 20:29:27;;;;;;;0.20;0.10;;;11.50;99.90;;;;;;25675694;23;20205;-63
2022/01/30 20:39:32;;;;;;;0.20;0.10;;;11.10;99.90;;;;;;25675967;23;20196;-63
2022/01/30 20:49:36;;;;;;;0.20;0.10;;;10.90;99.90;;;;;;25703721;23;20177;-64
2022/01/30 20:59:41;;;;;;;0.20;0.00;;;10.70;99.90;;;;;;25682429;23;20725;-65
2022/01/30 21:09:45;;;;;;;0.20;0.13;;;10.20;99.90;;;;;;25710663;23;20236;-67
2022/01/30 21:19:50;;;;;;;0.20;0.10;;;9.90;99.90;;;;;;25686936;23;20533;-65
2022/01/30 21:29:54;;;;;;;0.20;0.10;;;10.50;99.90;;;;;;25715738;23;20195;-65
2022/01/30 21:40:00;;;;;;;0.20;0.10;;;10.10;99.90;;;;;;25708977;23;20212;-63
2022/01/30 21:50:04;;;;;;;0.20;0.10;;;10.10;99.90;;;;;;25709022;23;20204;-72
2022/01/30 22:00:12;;;;;;;0.20;0.10;;;10.20;99.90;;;;;;25708451;23;20506;-71
2022/01/30 22:10:16;;;;;;;0.20;0.00;;;10.10;99.90;;;;;;25707425;23;20657;-64
2022/01/30 22:20:22;;;;;;;0.20;0.00;;;10.00;99.90;;;;;;25705867;23;20650;-63
2022/01/30 22:30:31;;;;;;;0.20;0.10;;;9.70;99.90;;;;;;25706816;23;20154;-63
2022/01/30 22:40:36;;;;;;;0.20;0.00;;;9.70;99.90;;;;;;25677737;23;20670;-64
2022/01/30 22:50:40;;;;;;;0.20;0.00;;;9.20;99.90;;;;;;25704991;23;20205;-63
2022/01/30 23:00:46;;;;;;;1.27;1.27;;;8.80;99.90;;;;;;25705144;23;20535;-64
2022/01/30 23:10:51;;;;;;;0.20;0.10;;;9.20;99.90;;;;;;25676728;23;20194;-65
2022/01/30 23:21:01;;;;;;;0.20;0.10;;;9.60;99.90;;;;;;25703955;23;20182;-65
2022/01/30 23:31:08;;;;;;;0.20;0.10;;;9.10;99.90;;;;;;25678488;23;20216;-65
2022/01/30 23:41:22;;;;;;;0.20;0.10;;;10.80;99.90;;;;;;25705838;23;20657;-73
2022/01/30 23:51:28;;;;;;;0.20;0.00;;;11.20;99.90;;;;;;25705644;23;20169;-73
